Duck, NC

9:36 AM EDT on August 23, 2014 (GMT -0400)
Martin's Point | Change Station
CLOSE
Current Station
Personal Weather Station
Location: Kitty Hawk, NC
Elevation: 0 ft
Nearby Weather Stations

Elev 0 ft 36.11 °N, 75.75 °W | Updated 13 minutes ago

Mostly Cloudy
Mostly Cloudy
78.4 °F
Feels Like 81 °F
N
8.0
Wind Variable Wind from NNE
Gusts 9.0 mph

Today
High -- | Low -- °F
--% Chance of Precip.
Yesterday
High -- | Low -- °F
Precip. -- in
6:27 AM 7:42 PM
Waning Crescent, 4% visible
Pressure 29.95 in
Visibility 10.0 miles
Clouds Mostly Cloudy 1900 ft
Mostly Cloudy 2800 ft
Heat Index 81 °F
Dew Point 73 °F
Humidity 84%
Rainfall 0.00 in
Snow Depth Not available.
UV 2 out of 12
Pollen 8.40 out of 12
Air Quality Not available.
Flu Activity Not available.
METAR KFFA 231315Z AUTO 06004KT 10SM BKN019 BKN028 27/21 A2995 RMK AO2 T02660214

More Conditions Fewer Conditions

Pressure 29.95 in
Visibility 10.0 miles
Clouds Mostly Cloudy 1900 ft
Mostly Cloudy 2800 ft
Heat Index 81 °F
Dew Point 73 °F
Humidity 84%
Rainfall 0.00 in
Snow Depth Not available.
UV 2 out of 12
Pollen 8.40 out of 12
Air Quality Not available.
Flu Activity Not available.
METAR KFFA 231315Z AUTO 06004KT 10SM BKN019 BKN028 27/21 A2995 RMK AO2 T02660214

More Conditions Fewer Conditions

10-Day Weather Forecast

Almanac

Astronomy

Aug. 23, 2014 Rise Set
Actual Time 6:27 AM EDT 7:42 PM EDT
Civil Twilight 6:00 AM EDT 8:09 PM EDT
Nautical Twilight 5:28 AM EDT 8:41 PM EDT
Astronomical Twilight 4:55 AM EDT 9:14 PM EDT
Moon 4:42 AM EDT 6:25 PM EDT
Length of Visible Light 14h 08m
Length of Day
13h 15m
Tomorrow will be 2m 7s shorter.
Waning Crescent, 4% of the Moon is Illuminated
Today
Waning Crescent
Aug 25
New
Sep 2
First Quarter
Sep 8
Full
Sep 15
Last Quarter

Today's Extremes

State Highs State Lows

Community

WunderPhotos

Upload Photos

1,746,452 photos uploaded!

WunderBlogs® & News

By Dr. Jeff Masters
Director of Meteorology, Weather Underground
By Kari Strenfel
Meteorologist, Weather Underground
By Christopher C. Burt
Weather Historian, Weather Underground
August 23, 2014
August 23, 2014
August 23, 2014

Nearby

Snow Depth

Station Depth Elevation
No new snow has been reported.

Earthquake Activity

City Distance Mag. Time & Date
No recent earthquake activity has been reported nearby.
Minimum magnitude displayed is 2.5.

Coastal Water Temperatures

Place Temperature
Duck Pier, NC 80.1 °F
Oregon Inlet Marina, NC 81.0 °F
Hatteras, NC 82.0 °F
Money Point, VA 82.9 °F
Sewells Point, VA 80.1 °F
Chesapeake Bay Bridge Tunnel, VA 73.9 °F

Nearby Weather Stations